Pagrindinis puslapis
METAR-TAF:

METAR-TAF

Oro uostai :

Gökçeada, Turkija

platuma: 40-12-04N, ilguma: 25-52-56E, Aukštis: 22 m

METAR: trūkstamas

Laikas: 20:54 (17:54 UTC)

Prognozė

Ataskaita buvo paskelbta 4 valandos ir 14 minutes, ne 13:40 UTC
Prognozė galioja nuo 15 metu 15 UTC su 15 metu 24 UTC
Vėjas 15 kt iš Šiaurės/Šiaurės Rytų
Matomumas 10 km arba daugiau
nėra debesų žemiau 1500 m ir nėra kamuolinių lietaus debesų

TAF: LTFK 151340Z 1515/1524 02015KT CAVOK

Orai ataskaitas ir orų prognozės (METAR, TAF).

turimą stotys yra geltonos ir raudonos taškus žemėlapyje.

Perkelti pele per norėdami pamatyti stoties vardą.

Tada spustelėkite, norėdami matyti oro stebėjimo ir prognozės.

Norėdami pakeisti žemėlapį: spustelėkite ant žalios mygtukų su juodo kryžiaus žemyn,; žalią mygtuką su brūkšneliu, jei norite nutolinti; arba žalių rodyklių gretimoms žemėlapius.


METAR-TAF: